createdAt,value
2019-04-04T00:01:37.175Z,8.50
2019-04-04T00:04:08.027Z,8.60
2019-04-04T00:06:38.887Z,8.60
2019-04-04T00:09:11.594Z,9.47
2019-04-04T00:11:42.567Z,8.77
2019-04-04T00:14:13.576Z,8.43
2019-04-04T00:16:46.748Z,8.00
2019-04-04T00:19:19.620Z,8.10
2019-04-04T00:21:50.595Z,8.27
2019-04-04T00:24:21.791Z,8.53
2019-04-04T00:26:52.970Z,9.33
2019-04-04T00:29:23.783Z,9.10
2019-04-04T00:31:54.644Z,9.07
2019-04-04T00:34:28.069Z,10.70
2019-04-04T00:36:58.789Z,10.77
2019-04-04T00:39:29.594Z,11.33
2019-04-04T00:42:00.593Z,10.73
2019-04-04T00:44:31.533Z,11.50
2019-04-04T00:47:02.923Z,12.50
2019-04-04T00:49:35.414Z,11.37
2019-04-04T00:52:10.061Z,12.03
2019-04-04T00:54:39.267Z,11.67
2019-04-04T00:57:10.214Z,12.30
2019-04-04T00:59:41.388Z,12.73
2019-04-04T01:02:12.327Z,12.87
2019-04-04T01:04:50.282Z,13.43
2019-04-04T01:07:22.664Z,12.63
2019-04-04T01:09:53.608Z,12.70
2019-04-04T01:12:24.780Z,12.80
2019-04-04T01:14:55.773Z,13.67
2019-04-04T01:17:26.630Z,13.67
2019-04-04T01:19:59.149Z,12.97
2019-04-04T01:22:30.536Z,14.10
2019-04-04T01:25:05.986Z,13.60
2019-04-04T01:27:37.575Z,14.80
2019-04-04T01:30:11.901Z,14.27
2019-04-04T01:32:42.694Z,15.13
2019-04-04T01:35:16.605Z,14.57
2019-04-04T01:37:47.579Z,16.07
2019-04-04T01:40:18.923Z,15.17
2019-04-04T01:42:51.386Z,16.37
2019-04-04T01:45:22.238Z,16.73
2019-04-04T01:47:55.827Z,17.43
2019-04-04T01:50:29.152Z,17.40
2019-04-04T01:53:00.137Z,17.43
2019-04-04T01:55:32.936Z,18.47
2019-04-04T01:58:03.966Z,18.80
2019-04-04T02:00:35.000Z,18.60
2019-04-04T02:03:06.133Z,18.63
2019-04-04T02:05:37.039Z,17.57
2019-04-04T02:08:09.281Z,18.00
2019-04-04T02:10:40.433Z,18.30
2019-04-04T02:13:11.271Z,17.73
2019-04-04T02:15:42.853Z,17.97
2019-04-04T02:18:15.137Z,18.00
2019-04-04T02:20:46.027Z,18.20
2019-04-04T02:23:17.229Z,18.30
2019-04-04T02:25:48.190Z,15.17
2019-04-04T02:28:19.038Z,16.07
2019-04-04T02:30:50.042Z,16.27
2019-04-04T02:33:21.064Z,15.53
2019-04-04T02:35:52.313Z,14.10
2019-04-04T02:38:27.180Z,12.67
2019-04-04T02:40:55.716Z,11.07
2019-04-04T02:43:28.304Z,11.77
2019-04-04T02:45:59.218Z,10.83
2019-04-04T02:48:30.131Z,10.90
2019-04-04T02:51:01.434Z,10.83
2019-04-04T02:53:32.296Z,9.53
2019-04-04T02:56:03.711Z,8.33
2019-04-04T02:58:34.644Z,8.87
2019-04-04T03:01:05.508Z,9.37
2019-04-04T03:03:41.066Z,10.13
2019-04-04T03:06:09.389Z,10.00
2019-04-04T03:08:40.352Z,9.27
2019-04-04T03:11:11.182Z,8.80
2019-04-04T03:13:42.057Z,9.47
2019-04-04T03:16:13.276Z,9.50
2019-04-04T03:18:44.142Z,8.57
2019-04-04T03:21:15.215Z,8.10
2019-04-04T03:23:46.279Z,7.70
2019-04-04T03:26:20.193Z,8.60
2019-04-04T03:28:50.743Z,8.30
2019-04-04T03:31:21.678Z,8.37
2019-04-04T03:33:53.026Z,8.37
2019-04-04T03:36:26.594Z,8.63
2019-04-04T03:39:00.204Z,8.00
2019-04-04T03:41:35.821Z,7.97
2019-04-04T03:44:10.457Z,7.43
2019-04-04T03:46:41.267Z,7.97
2019-04-04T03:49:12.488Z,8.17
2019-04-04T03:51:43.344Z,7.53
2019-04-04T03:54:22.209Z,7.57
2019-04-04T03:56:50.454Z,7.80
2019-04-04T03:59:21.239Z,7.60
2019-04-04T04:01:52.562Z,8.13
2019-04-04T04:04:27.062Z,7.37
2019-04-04T04:06:56.066Z,7.67
2019-04-04T04:09:27.294Z,7.03
2019-04-04T04:11:58.769Z,6.40
2019-04-04T04:14:29.640Z,7.83
2019-04-04T04:17:00.520Z,8.07
2019-04-04T04:19:33.798Z,8.50
2019-04-04T04:22:04.967Z,8.30
2019-04-04T04:24:36.282Z,8.23
2019-04-04T04:27:07.156Z,7.10
2019-04-04T04:29:38.432Z,7.80
2019-04-04T04:32:09.536Z,8.70
2019-04-04T04:34:40.965Z,7.83
2019-04-04T04:37:11.936Z,8.10
2019-04-04T04:39:43.397Z,8.07
2019-04-04T04:42:21.310Z,8.83
2019-04-04T04:44:52.364Z,7.80
2019-04-04T04:47:24.159Z,7.47
2019-04-04T04:49:55.580Z,7.83
2019-04-04T04:52:27.889Z,8.60
2019-04-04T04:54:58.792Z,9.47
2019-04-04T04:57:30.393Z,8.90
2019-04-04T05:00:01.563Z,9.07
2019-04-04T05:02:34.886Z,9.80
2019-04-04T05:05:07.141Z,9.57
2019-04-04T05:07:39.078Z,10.83
2019-04-04T05:10:15.059Z,11.30
2019-04-04T05:12:45.996Z,11.47
2019-04-04T05:15:16.850Z,10.23
2019-04-04T05:17:47.715Z,10.83
2019-04-04T05:20:18.651Z,11.10
2019-04-04T05:22:49.490Z,11.67
2019-04-04T05:25:20.343Z,12.87
2019-04-04T05:27:51.259Z,12.60
2019-04-04T05:30:24.872Z,12.97
2019-04-04T05:32:56.586Z,13.37
2019-04-04T05:35:31.250Z,13.37
2019-04-04T05:38:02.705Z,14.07
2019-04-04T05:40:33.594Z,14.17
2019-04-04T05:43:04.911Z,13.47
2019-04-04T05:45:39.359Z,15.87
2019-04-04T05:48:10.752Z,14.70
2019-04-04T05:50:43.610Z,13.43
2019-04-04T05:53:28.346Z,13.87
2019-04-04T05:55:59.497Z,12.73
2019-04-04T05:58:30.399Z,14.80
2019-04-04T06:01:07.864Z,15.93
2019-04-04T06:03:38.774Z,15.37
2019-04-04T06:06:10.679Z,14.90
2019-04-04T06:08:43.373Z,18.20
2019-04-04T06:11:20.961Z,17.43
2019-04-04T06:13:50.680Z,16.07
2019-04-04T06:16:21.834Z,17.73
2019-04-04T06:18:52.626Z,17.67
2019-04-04T06:21:23.496Z,17.60
2019-04-04T06:23:55.978Z,18.43
2019-04-04T06:26:26.969Z,17.70
2019-04-04T06:29:01.422Z,16.60
2019-04-04T06:31:35.328Z,15.37
2019-04-04T06:34:10.081Z,17.57
2019-04-04T06:36:38.895Z,17.43
2019-04-04T06:39:09.731Z,17.53
2019-04-04T06:41:41.040Z,15.80
2019-04-04T06:44:13.118Z,15.67
2019-04-04T06:46:44.622Z,14.83
2019-04-04T06:49:17.753Z,16.33
2019-04-04T06:51:48.619Z,18.33
2019-04-04T06:54:19.635Z,21.17
2019-04-04T06:56:50.961Z,21.23
2019-04-04T06:59:21.814Z,22.47
2019-04-04T07:01:52.727Z,22.33
2019-04-04T07:04:23.752Z,19.10
2019-04-04T07:06:59.105Z,19.47
2019-04-04T07:09:31.599Z,19.97
2019-04-04T07:12:06.744Z,20.43
2019-04-04T07:14:45.732Z,19.57
2019-04-04T07:17:16.172Z,20.07
2019-04-04T07:19:46.252Z,20.47
2019-04-04T07:22:20.505Z,18.97
2019-04-04T07:25:10.332Z,21.80
2019-04-04T07:27:43.258Z,20.07
2019-04-04T07:30:16.454Z,19.83
2019-04-04T07:32:47.526Z,19.40
2019-04-04T07:35:20.917Z,19.37
2019-04-04T07:37:57.092Z,19.07
2019-04-04T07:40:28.213Z,17.10
2019-04-04T07:42:59.762Z,18.53
2019-04-04T07:45:33.751Z,18.37
2019-04-04T07:48:07.460Z,16.90
2019-04-04T07:50:45.330Z,16.27
2019-04-04T07:53:16.578Z,15.60
2019-04-04T07:55:53.914Z,16.47
2019-04-04T07:58:26.005Z,15.60
2019-04-04T08:00:58.295Z,15.30
2019-04-04T08:03:30.874Z,15.97
2019-04-04T08:06:01.766Z,17.00
2019-04-04T08:08:34.321Z,15.73
2019-04-04T08:11:07.499Z,15.97
2019-04-04T08:13:38.485Z,15.97
2019-04-04T08:16:10.562Z,16.40
2019-04-04T08:18:46.575Z,15.53
2019-04-04T08:21:19.186Z,15.90
2019-04-04T08:23:50.468Z,15.80
2019-04-04T08:26:22.253Z,16.77
2019-04-04T08:28:53.420Z,15.40
2019-04-04T08:31:24.794Z,15.13
2019-04-04T08:33:59.111Z,15.17
2019-04-04T08:36:32.296Z,15.20
2019-04-04T08:39:03.208Z,15.40
2019-04-04T08:42:01.668Z,14.57
2019-04-04T08:44:46.748Z,14.97
2019-04-04T08:47:20.621Z,14.57
2019-04-04T08:49:51.491Z,14.10
2019-04-04T08:52:22.468Z,13.20
2019-04-04T08:54:53.566Z,13.23
2019-04-04T08:57:26.102Z,13.77
2019-04-04T08:59:57.603Z,13.47
2019-04-04T09:02:28.684Z,13.13
2019-04-04T09:09:08.898Z,12.43
2019-04-04T09:11:45.344Z,12.57
2019-04-04T09:14:18.112Z,12.40
2019-04-04T09:16:49.569Z,12.43
2019-04-04T09:19:20.789Z,11.50
2019-04-04T09:21:55.062Z,10.53
2019-04-04T09:24:26.607Z,11.17
2019-04-04T09:27:00.970Z,11.00
2019-04-04T09:29:32.148Z,11.30
2019-04-04T09:32:10.754Z,10.63
2019-04-04T09:34:41.696Z,11.50
2019-04-04T09:37:15.451Z,10.50
2019-04-04T09:39:46.934Z,11.40
2019-04-04T09:42:18.321Z,10.83
2019-04-04T09:44:52.466Z,11.63
2019-04-04T09:47:26.846Z,11.70
2019-04-04T09:49:57.927Z,11.90
2019-04-04T09:52:29.040Z,11.90
2019-04-04T09:55:01.097Z,11.03
2019-04-04T09:57:33.999Z,11.93
2019-04-04T10:00:15.240Z,11.40
2019-04-04T10:02:48.585Z,11.60
2019-04-04T10:05:23.868Z,10.27
2019-04-04T10:07:58.068Z,10.77
2019-04-04T10:10:29.496Z,10.67
2019-04-04T10:13:06.578Z,10.60
2019-04-04T10:15:39.814Z,9.73
2019-04-04T10:18:11.186Z,10.13
2019-04-04T10:20:43.698Z,12.40
2019-04-04T10:23:15.420Z,11.20
2019-04-04T10:26:12.057Z,10.83
2019-04-04T10:29:07.498Z,11.07
2019-04-04T10:31:38.429Z,12.23
2019-04-04T10:34:16.234Z,12.67
2019-04-04T10:37:07.409Z,13.80
2019-04-04T10:39:45.843Z,14.87
2019-04-04T10:42:16.746Z,14.03
2019-04-04T10:44:47.688Z,13.37
2019-04-04T10:47:21.880Z,15.73
2019-04-04T10:49:54.729Z,15.27
2019-04-04T10:52:27.850Z,15.87
2019-04-04T10:55:01.491Z,15.13
2019-04-04T10:57:34.638Z,15.63
2019-04-04T11:00:13.140Z,16.30
2019-04-04T11:02:44.279Z,16.03
2019-04-04T11:05:24.397Z,17.27
2019-04-04T11:08:01.224Z,17.13
2019-04-04T11:10:42.285Z,18.07
2019-04-04T11:13:17.554Z,18.67
2019-04-04T11:15:51.414Z,19.37
2019-04-04T11:18:25.671Z,18.60
2019-04-04T11:21:03.502Z,20.03
2019-04-04T11:23:34.662Z,22.97
2019-04-04T11:26:06.356Z,22.03
2019-04-04T11:28:42.503Z,23.00
2019-04-04T11:31:18.065Z,22.53
2019-04-04T11:33:48.968Z,20.70
2019-04-04T11:36:20.156Z,21.40
2019-04-04T11:38:52.217Z,22.73
2019-04-04T11:41:24.677Z,22.90
2019-04-04T11:44:01.080Z,23.40
2019-04-04T11:46:45.903Z,25.60
2019-04-04T11:49:18.941Z,24.33
2019-04-04T11:51:51.481Z,24.77
2019-04-04T11:54:22.420Z,28.23
2019-04-04T11:56:53.344Z,27.93
2019-04-04T11:59:24.944Z,29.33
2019-04-04T12:01:59.279Z,28.30
2019-04-04T12:04:33.337Z,28.00
2019-04-04T12:07:04.742Z,25.60
2019-04-04T12:09:36.108Z,26.80
2019-04-04T12:12:07.099Z,26.70
2019-04-04T12:14:38.455Z,26.87
2019-04-04T12:17:15.732Z,25.13
2019-04-04T12:19:47.051Z,31.10
2019-04-04T12:22:20.809Z,28.97
2019-04-04T12:24:51.766Z,28.13
2019-04-04T12:27:22.608Z,28.30
2019-04-04T12:29:53.757Z,28.27
2019-04-04T12:32:25.339Z,28.47
2019-04-04T12:34:56.232Z,28.77
2019-04-04T12:37:28.999Z,27.77
2019-04-04T12:40:00.298Z,27.57
2019-04-04T12:42:32.004Z,29.73
2019-04-04T12:45:05.303Z,28.83
2019-04-04T12:47:41.630Z,27.30
2019-04-04T12:50:14.015Z,28.87
2019-04-04T12:52:46.854Z,27.27
2019-04-04T12:55:19.357Z,27.13
2019-04-04T12:57:50.329Z,25.23
2019-04-04T13:00:26.570Z,26.97
2019-04-04T13:02:57.730Z,25.20
2019-04-04T13:05:33.838Z,23.87
2019-04-04T13:08:04.543Z,23.60
2019-04-04T13:10:38.909Z,22.60
2019-04-04T13:13:13.311Z,23.63
2019-04-04T13:15:48.222Z,23.33
2019-04-04T13:18:19.510Z,22.60
2019-04-04T13:20:51.186Z,22.77
2019-04-04T13:23:22.996Z,21.40
2019-04-04T13:25:56.932Z,9.03
2019-04-04T13:28:27.846Z,5.37
2019-04-04T13:31:02.493Z,5.17
2019-04-04T13:33:33.398Z,4.90
2019-04-04T13:36:27.527Z,4.70
2019-04-04T13:39:07.008Z,4.40
2019-04-04T13:41:44.629Z,4.33
2019-04-04T13:44:26.051Z,4.67
2019-04-04T13:47:09.609Z,4.40
2019-04-04T13:49:42.180Z,4.63
2019-04-04T13:52:29.655Z,3.97
2019-04-04T13:55:43.663Z,4.17
2019-04-04T13:58:47.469Z,3.87
2019-04-04T14:01:55.048Z,3.20
2019-04-04T14:04:27.926Z,3.57
2019-04-04T14:07:03.078Z,3.40
2019-04-04T14:09:36.972Z,3.50
2019-04-04T14:12:07.912Z,3.27
2019-04-04T14:14:45.216Z,3.17
2019-04-04T14:17:16.256Z,3.37
2019-04-04T14:19:47.967Z,2.70
2019-04-04T14:22:20.310Z,3.40
2019-04-04T14:24:53.963Z,3.13
2019-04-04T14:27:27.354Z,2.87
2019-04-04T14:29:59.108Z,3.17
2019-04-04T14:32:31.810Z,8.93
2019-04-04T14:35:03.733Z,16.53
2019-04-04T14:37:39.041Z,19.40
2019-04-04T14:40:15.295Z,21.53
2019-04-04T14:43:03.430Z,18.37
2019-04-04T14:45:39.042Z,18.60
2019-04-04T14:48:11.097Z,18.17
2019-04-04T14:50:47.666Z,15.73
2019-04-04T14:53:21.848Z,17.37
2019-04-04T14:55:53.996Z,15.97
2019-04-04T14:58:25.520Z,14.33
2019-04-04T15:00:56.796Z,14.10
2019-04-04T15:03:28.493Z,11.43
2019-04-04T15:06:00.454Z,7.33
2019-04-04T15:08:35.765Z,3.67
2019-04-04T15:11:23.176Z,3.07
2019-04-04T15:13:47.202Z,3.00
2019-04-04T15:16:25.620Z,3.23
2019-04-04T15:18:57.027Z,2.80
2019-04-04T15:21:28.536Z,3.03
2019-04-04T15:24:01.836Z,3.13
2019-04-04T15:26:34.315Z,3.40
2019-04-04T15:29:08.835Z,3.10
2019-04-04T15:31:44.980Z,3.50
2019-04-04T15:34:38.380Z,3.67
2019-04-04T15:37:15.601Z,3.20
2019-04-04T15:39:48.664Z,3.30
2019-04-04T15:42:28.437Z,3.30
2019-04-04T15:45:00.428Z,3.03
2019-04-04T15:47:36.476Z,3.37
2019-04-04T15:50:10.328Z,3.43
2019-04-04T15:53:03.664Z,3.40
2019-04-04T15:55:36.358Z,3.13
2019-04-04T15:58:16.668Z,3.27
2019-04-04T16:00:49.383Z,3.30
2019-04-04T16:03:27.361Z,3.40
2019-04-04T16:06:03.597Z,2.97
2019-04-04T16:08:36.303Z,3.03
2019-04-04T16:11:16.819Z,3.13
2019-04-04T16:13:55.526Z,3.30
2019-04-04T16:16:27.511Z,2.90
2019-04-04T16:19:08.378Z,3.20
2019-04-04T16:21:41.170Z,3.20
2019-04-04T16:24:12.952Z,3.43
2019-04-04T16:26:56.653Z,3.23
2019-04-04T16:29:28.135Z,3.50
2019-04-04T16:32:00.380Z,3.17
2019-04-04T16:34:37.339Z,3.33
2019-04-04T16:37:10.420Z,3.47
2019-04-04T16:39:42.828Z,3.60
2019-04-04T16:42:14.481Z,3.63
2019-04-04T16:44:48.201Z,3.43
2019-04-04T16:48:25.188Z,3.20
2019-04-04T16:51:10.991Z,3.27
2019-04-04T16:54:02.724Z,3.73
2019-04-04T16:57:02.685Z,3.70
2019-04-04T16:59:44.779Z,3.67
2019-04-04T17:02:16.468Z,3.67
2019-04-04T17:04:50.500Z,3.60
2019-04-04T17:07:26.280Z,3.90
2019-04-04T17:09:58.033Z,3.80
2019-04-04T17:12:29.913Z,3.80
2019-04-04T17:15:01.796Z,3.77
2019-04-04T17:17:41.374Z,3.70
2019-04-04T17:20:14.855Z,3.83
2019-04-04T17:22:52.244Z,4.30
2019-04-04T17:25:24.168Z,4.53
2019-04-04T17:27:57.437Z,4.03
2019-04-04T17:30:33.545Z,4.17
2019-04-04T17:33:09.548Z,4.77
2019-04-04T17:35:41.919Z,4.43
2019-04-04T17:38:13.897Z,4.60
2019-04-04T17:40:46.547Z,4.60
2019-04-04T17:43:22.349Z,4.27
2019-04-04T17:45:56.426Z,4.90
2019-04-04T17:48:32.648Z,4.33
2019-04-04T17:51:07.888Z,5.57
2019-04-04T17:53:47.952Z,14.20
2019-04-04T17:56:22.439Z,17.10
2019-04-04T17:59:03.379Z,18.43
2019-04-04T18:01:38.440Z,20.37
2019-04-04T18:04:10.645Z,21.97
2019-04-04T18:06:44.533Z,22.00
2019-04-04T18:09:16.758Z,21.40
2019-04-04T18:11:54.060Z,22.20
2019-04-04T18:14:26.266Z,23.47
2019-04-04T18:16:58.621Z,23.87
2019-04-04T18:19:31.910Z,24.70
2019-04-04T18:22:06.752Z,24.50
2019-04-04T18:24:40.554Z,25.03
2019-04-04T18:27:20.873Z,25.83
2019-04-04T18:30:00.446Z,28.30
2019-04-04T18:32:34.201Z,27.23
2019-04-04T18:35:17.612Z,29.20
2019-04-04T18:38:26.185Z,29.63
2019-04-04T18:41:21.407Z,29.33
2019-04-04T18:43:56.441Z,31.87
2019-04-04T18:46:29.139Z,31.03
2019-04-04T18:49:04.830Z,32.67
2019-04-04T18:51:41.646Z,33.70
2019-04-04T18:54:33.366Z,34.73
2019-04-04T18:57:07.474Z,33.67
2019-04-04T18:59:41.720Z,34.60
2019-04-04T19:02:16.020Z,36.50
2019-04-04T19:04:55.928Z,35.60
2019-04-04T19:07:39.273Z,35.87
2019-04-04T19:10:04.223Z,36.63
2019-04-04T19:12:36.421Z,38.63
2019-04-04T19:15:12.376Z,38.70
2019-04-04T19:17:44.676Z,38.60
2019-04-04T19:20:24.289Z,38.00
2019-04-04T19:23:04.299Z,40.17
2019-04-04T19:25:39.792Z,41.17
2019-04-04T19:28:16.913Z,40.53
2019-04-04T19:30:58.466Z,37.63
2019-04-04T19:33:39.439Z,39.33
2019-04-04T19:36:14.657Z,40.50
2019-04-04T19:39:00.592Z,40.77
2019-04-04T19:41:38.212Z,41.10
2019-04-04T19:44:10.796Z,40.23
2019-04-04T19:46:49.869Z,41.53
2019-04-04T19:49:23.818Z,41.07
2019-04-04T19:51:58.790Z,40.93
2019-04-04T19:54:44.059Z,41.50
2019-04-04T19:57:37.159Z,42.97
2019-04-04T20:00:27.268Z,39.90
2019-04-04T20:03:04.199Z,41.47
2019-04-04T20:05:44.526Z,41.00
2019-04-04T20:08:32.557Z,43.53
2019-04-04T20:11:10.805Z,44.17
2019-04-04T20:13:46.495Z,42.03
2019-04-04T20:16:19.739Z,43.23
2019-04-04T20:19:08.443Z,45.03
2019-04-04T20:21:41.315Z,44.20
2019-04-04T20:24:16.334Z,42.90
2019-04-04T20:26:53.849Z,42.77
2019-04-04T20:29:27.777Z,41.30
2019-04-04T20:32:14.369Z,42.30
2019-04-04T20:35:05.300Z,43.10
2019-04-04T20:37:38.990Z,42.07
2019-04-04T20:40:13.064Z,41.13
2019-04-04T20:42:46.048Z,42.43
2019-04-04T20:45:19.935Z,43.13
2019-04-04T20:47:53.669Z,41.23
2019-04-04T20:50:37.954Z,42.37
2019-04-04T20:53:08.894Z,41.07
2019-04-04T20:55:45.324Z,40.73
2019-04-04T20:58:20.895Z,42.90
2019-04-04T21:00:57.080Z,42.97
2019-04-04T21:03:35.469Z,42.77
2019-04-04T21:06:11.287Z,41.07
2019-04-04T21:08:48.554Z,40.77
2019-04-04T21:11:29.100Z,40.30
2019-04-04T21:14:02.250Z,40.90
2019-04-04T21:16:33.317Z,39.47
2019-04-04T21:19:10.537Z,42.00
2019-04-04T21:21:41.773Z,41.10
2019-04-04T21:24:16.077Z,41.40
2019-04-04T21:26:49.598Z,41.47
2019-04-04T21:29:25.968Z,39.00
2019-04-04T21:31:57.134Z,39.50
2019-04-04T21:34:28.050Z,39.80
2019-04-04T21:37:05.483Z,40.33
2019-04-04T21:39:36.633Z,38.97
2019-04-04T21:42:11.415Z,40.03
2019-04-04T21:44:45.494Z,39.63
2019-04-04T21:47:22.461Z,39.20
2019-04-04T21:49:53.281Z,41.23
2019-04-04T21:52:26.621Z,41.57
2019-04-04T21:54:58.132Z,40.27
2019-04-04T21:57:29.163Z,40.73
2019-04-04T22:00:00.101Z,42.10
2019-04-04T22:02:38.654Z,42.90
2019-04-04T22:05:19.593Z,40.73
2019-04-04T22:07:53.671Z,41.57
2019-04-04T22:10:24.926Z,40.50
2019-04-04T22:13:00.575Z,42.10
2019-04-04T22:15:34.231Z,41.53
2019-04-04T22:18:06.454Z,44.03
2019-04-04T22:20:43.640Z,40.83
2019-04-04T22:23:14.591Z,42.20
2019-04-04T22:25:50.199Z,42.80
2019-04-04T22:28:21.520Z,42.77
2019-04-04T22:31:00.482Z,45.00
2019-04-04T22:33:30.086Z,42.53
2019-04-04T22:36:00.979Z,40.10
2019-04-04T22:38:32.186Z,39.33
2019-04-04T22:41:03.241Z,40.50
2019-04-04T22:43:34.381Z,40.50
2019-04-04T22:46:05.419Z,39.97
2019-04-04T22:48:36.406Z,37.03
2019-04-04T22:51:07.703Z,40.23
2019-04-04T22:53:38.650Z,39.73
2019-04-04T22:56:09.537Z,37.63
2019-04-04T22:58:40.461Z,40.10
2019-04-04T23:01:11.315Z,40.70
2019-04-04T23:03:42.549Z,38.57
2019-04-04T23:06:13.369Z,37.87
2019-04-04T23:08:47.107Z,39.70
2019-04-04T23:11:17.982Z,39.10
2019-04-04T23:13:54.642Z,39.33
2019-04-04T23:16:25.505Z,38.40
2019-04-04T23:18:59.610Z,38.17
2019-04-04T23:21:30.574Z,38.43
2019-04-04T23:24:01.440Z,37.23
2019-04-04T23:26:32.442Z,38.40
2019-04-04T23:29:03.265Z,38.50
2019-04-04T23:31:34.519Z,37.33
2019-04-04T23:34:05.370Z,39.33
2019-04-04T23:36:36.480Z,37.83
2019-04-04T23:39:08.539Z,39.13
2019-04-04T23:41:39.379Z,39.30
2019-04-04T23:44:10.254Z,37.03
2019-04-04T23:46:41.836Z,36.57
2019-04-04T23:49:12.754Z,38.63
2019-04-04T23:51:47.853Z,39.73
2019-04-04T23:54:19.120Z,37.33
2019-04-04T23:56:50.140Z,37.70
2019-04-04T23:59:21.465Z,37.23
